sensor_id;sensor_type;location;lat;lon;timestamp;P1;durP1;ratioP1;P2;durP2;ratioP2
10403;SDS011;5248;47.374;8.486;2022-08-19T00:01:49;9.95;;;9.05;;
10403;SDS011;5248;47.374;8.486;2022-08-19T00:04:17;10.10;;;9.30;;
10403;SDS011;5248;47.374;8.486;2022-08-19T00:06:46;10.38;;;9.48;;
10403;SDS011;5248;47.374;8.486;2022-08-19T00:09:15;10.20;;;9.30;;
10403;SDS011;5248;47.374;8.486;2022-08-19T00:11:43;9.40;;;8.68;;
10403;SDS011;5248;47.374;8.486;2022-08-19T00:14:11;8.70;;;7.90;;
10403;SDS011;5248;47.374;8.486;2022-08-19T00:16:40;9.65;;;8.95;;
10403;SDS011;5248;47.374;8.486;2022-08-19T00:19:08;9.88;;;9.07;;
10403;SDS011;5248;47.374;8.486;2022-08-19T00:21:35;9.20;;;8.43;;
10403;SDS011;5248;47.374;8.486;2022-08-19T00:24:04;9.80;;;9.02;;
10403;SDS011;5248;47.374;8.486;2022-08-19T00:26:33;10.00;;;9.20;;
10403;SDS011;5248;47.374;8.486;2022-08-19T00:29:00;9.80;;;9.07;;
10403;SDS011;5248;47.374;8.486;2022-08-19T00:31:27;8.93;;;8.23;;
10403;SDS011;5248;47.374;8.486;2022-08-19T00:33:54;9.68;;;8.88;;
10403;SDS011;5248;47.374;8.486;2022-08-19T00:36:21;9.70;;;9.00;;
10403;SDS011;5248;47.374;8.486;2022-08-19T00:38:47;10.00;;;9.10;;
10403;SDS011;5248;47.374;8.486;2022-08-19T00:41:17;10.20;;;9.40;;
10403;SDS011;5248;47.374;8.486;2022-08-19T00:43:57;9.77;;;9.10;;
10403;SDS011;5248;47.374;8.486;2022-08-19T00:46:25;10.52;;;9.73;;
10403;SDS011;5248;47.374;8.486;2022-08-19T00:48:52;9.63;;;8.93;;
10403;SDS011;5248;47.374;8.486;2022-08-19T00:51:20;11.30;;;10.40;;
10403;SDS011;5248;47.374;8.486;2022-08-19T00:53:47;10.70;;;9.85;;
10403;SDS011;5248;47.374;8.486;2022-08-19T00:56:13;9.98;;;9.27;;
10403;SDS011;5248;47.374;8.486;2022-08-19T00:58:42;11.15;;;10.23;;
10403;SDS011;5248;47.374;8.486;2022-08-19T01:01:10;11.02;;;10.13;;
10403;SDS011;5248;47.374;8.486;2022-08-19T01:03:36;11.30;;;10.40;;
10403;SDS011;5248;47.374;8.486;2022-08-19T01:06:03;10.18;;;9.27;;
10403;SDS011;5248;47.374;8.486;2022-08-19T01:08:31;10.40;;;9.60;;
10403;SDS011;5248;47.374;8.486;2022-08-19T01:10:58;10.88;;;10.07;;
10403;SDS011;5248;47.374;8.486;2022-08-19T01:13:26;10.82;;;9.90;;
10403;SDS011;5248;47.374;8.486;2022-08-19T01:15:55;11.00;;;10.07;;
10403;SDS011;5248;47.374;8.486;2022-08-19T01:18:25;10.73;;;9.82;;
10403;SDS011;5248;47.374;8.486;2022-08-19T01:20:53;11.13;;;10.10;;
10403;SDS011;5248;47.374;8.486;2022-08-19T01:23:22;11.10;;;10.20;;
10403;SDS011;5248;47.374;8.486;2022-08-19T01:26:07;10.88;;;10.07;;
10403;SDS011;5248;47.374;8.486;2022-08-19T01:28:35;11.65;;;10.60;;
10403;SDS011;5248;47.374;8.486;2022-08-19T01:31:03;11.93;;;10.88;;
10403;SDS011;5248;47.374;8.486;2022-08-19T01:33:30;10.38;;;9.50;;
10403;SDS011;5248;47.374;8.486;2022-08-19T01:36:02;10.77;;;9.80;;
10403;SDS011;5248;47.374;8.486;2022-08-19T01:38:35;10.90;;;10.00;;
10403;SDS011;5248;47.374;8.486;2022-08-19T01:41:03;11.52;;;10.43;;
10403;SDS011;5248;47.374;8.486;2022-08-19T01:43:30;11.40;;;10.38;;
10403;SDS011;5248;47.374;8.486;2022-08-19T01:45:57;10.95;;;9.90;;
10403;SDS011;5248;47.374;8.486;2022-08-19T01:48:24;10.52;;;9.65;;
10403;SDS011;5248;47.374;8.486;2022-08-19T01:50:51;11.30;;;10.32;;
10403;SDS011;5248;47.374;8.486;2022-08-19T01:53:18;11.27;;;10.23;;
10403;SDS011;5248;47.374;8.486;2022-08-19T01:55:46;10.65;;;9.85;;
10403;SDS011;5248;47.374;8.486;2022-08-19T01:58:15;11.27;;;10.38;;
10403;SDS011;5248;47.374;8.486;2022-08-19T02:00:43;11.32;;;10.32;;
10403;SDS011;5248;47.374;8.486;2022-08-19T02:03:11;10.65;;;9.80;;
10403;SDS011;5248;47.374;8.486;2022-08-19T02:05:38;11.18;;;10.38;;
10403;SDS011;5248;47.374;8.486;2022-08-19T02:08:05;10.98;;;10.07;;
10403;SDS011;5248;47.374;8.486;2022-08-19T02:10:32;11.05;;;10.05;;
10403;SDS011;5248;47.374;8.486;2022-08-19T02:13:00;11.60;;;10.60;;
10403;SDS011;5248;47.374;8.486;2022-08-19T02:15:27;11.32;;;10.38;;
10403;SDS011;5248;47.374;8.486;2022-08-19T02:17:54;11.18;;;10.27;;
10403;SDS011;5248;47.374;8.486;2022-08-19T02:20:20;11.98;;;10.98;;
10403;SDS011;5248;47.374;8.486;2022-08-19T02:22:47;11.75;;;10.85;;
10403;SDS011;5248;47.374;8.486;2022-08-19T02:25:14;11.98;;;10.88;;
10403;SDS011;5248;47.374;8.486;2022-08-19T02:27:41;12.48;;;11.48;;
10403;SDS011;5248;47.374;8.486;2022-08-19T02:30:12;14.23;;;12.85;;
10403;SDS011;5248;47.374;8.486;2022-08-19T02:32:40;13.18;;;11.88;;
10403;SDS011;5248;47.374;8.486;2022-08-19T02:35:07;15.00;;;13.70;;
10403;SDS011;5248;47.374;8.486;2022-08-19T02:37:34;15.13;;;13.70;;
10403;SDS011;5248;47.374;8.486;2022-08-19T02:40:21;15.02;;;13.55;;
10403;SDS011;5248;47.374;8.486;2022-08-19T02:42:48;14.52;;;13.32;;
10403;SDS011;5248;47.374;8.486;2022-08-19T02:45:18;14.13;;;12.82;;
10403;SDS011;5248;47.374;8.486;2022-08-19T02:47:45;14.55;;;13.35;;
10403;SDS011;5248;47.374;8.486;2022-08-19T02:50:12;13.43;;;12.32;;
10403;SDS011;5248;47.374;8.486;2022-08-19T02:52:39;14.93;;;13.43;;
10403;SDS011;5248;47.374;8.486;2022-08-19T02:55:06;16.13;;;14.52;;
10403;SDS011;5248;47.374;8.486;2022-08-19T02:57:33;16.52;;;15.02;;
10403;SDS011;5248;47.374;8.486;2022-08-19T03:00:00;18.13;;;16.52;;
10403;SDS011;5248;47.374;8.486;2022-08-19T03:02:31;17.83;;;16.13;;
10403;SDS011;5248;47.374;8.486;2022-08-19T03:04:57;18.83;;;16.92;;
10403;SDS011;5248;47.374;8.486;2022-08-19T03:07:24;18.52;;;16.83;;
10403;SDS011;5248;47.374;8.486;2022-08-19T03:09:51;17.25;;;15.65;;
10403;SDS011;5248;47.374;8.486;2022-08-19T03:12:18;18.35;;;16.65;;
10403;SDS011;5248;47.374;8.486;2022-08-19T03:14:44;17.85;;;16.25;;
10403;SDS011;5248;47.374;8.486;2022-08-19T03:17:11;18.23;;;16.52;;
10403;SDS011;5248;47.374;8.486;2022-08-19T03:19:39;18.63;;;16.75;;
10403;SDS011;5248;47.374;8.486;2022-08-19T03:22:06;17.48;;;15.77;;
10403;SDS011;5248;47.374;8.486;2022-08-19T03:24:33;17.02;;;15.52;;
10403;SDS011;5248;47.374;8.486;2022-08-19T03:26:59;18.17;;;16.48;;
10403;SDS011;5248;47.374;8.486;2022-08-19T03:29:28;17.25;;;15.65;;
10403;SDS011;5248;47.374;8.486;2022-08-19T03:31:56;17.55;;;15.90;;
10403;SDS011;5248;47.374;8.486;2022-08-19T03:34:25;17.13;;;15.63;;
10403;SDS011;5248;47.374;8.486;2022-08-19T03:36:56;18.55;;;16.95;;
10403;SDS011;5248;47.374;8.486;2022-08-19T03:39:23;18.42;;;16.63;;
10403;SDS011;5248;47.374;8.486;2022-08-19T03:41:52;18.00;;;16.30;;
10403;SDS011;5248;47.374;8.486;2022-08-19T03:44:22;17.10;;;15.50;;
10403;SDS011;5248;47.374;8.486;2022-08-19T03:46:50;17.38;;;15.50;;
10403;SDS011;5248;47.374;8.486;2022-08-19T03:49:20;17.48;;;15.88;;
10403;SDS011;5248;47.374;8.486;2022-08-19T03:51:49;18.35;;;16.65;;
10403;SDS011;5248;47.374;8.486;2022-08-19T03:54:18;18.50;;;16.80;;
10403;SDS011;5248;47.374;8.486;2022-08-19T03:56:46;18.85;;;17.05;;
10403;SDS011;5248;47.374;8.486;2022-08-19T03:59:15;20.08;;;18.00;;
10403;SDS011;5248;47.374;8.486;2022-08-19T04:01:43;18.98;;;17.27;;
10403;SDS011;5248;47.374;8.486;2022-08-19T04:04:11;19.63;;;17.73;;
10403;SDS011;5248;47.374;8.486;2022-08-19T04:06:38;20.15;;;18.25;;
10403;SDS011;5248;47.374;8.486;2022-08-19T04:09:06;19.63;;;17.83;;
10403;SDS011;5248;47.374;8.486;2022-08-19T04:11:36;19.50;;;17.73;;
10403;SDS011;5248;47.374;8.486;2022-08-19T04:14:06;17.90;;;16.30;;
10403;SDS011;5248;47.374;8.486;2022-08-19T04:16:33;20.15;;;18.25;;
10403;SDS011;5248;47.374;8.486;2022-08-19T04:19:01;20.40;;;18.45;;
10403;SDS011;5248;47.374;8.486;2022-08-19T04:21:29;20.73;;;18.83;;
10403;SDS011;5248;47.374;8.486;2022-08-19T04:23:56;20.55;;;18.55;;
10403;SDS011;5248;47.374;8.486;2022-08-19T04:26:24;22.70;;;20.60;;
10403;SDS011;5248;47.374;8.486;2022-08-19T04:28:58;21.85;;;19.45;;
10403;SDS011;5248;47.374;8.486;2022-08-19T04:31:27;21.85;;;19.77;;
10403;SDS011;5248;47.374;8.486;2022-08-19T04:33:55;22.48;;;20.27;;
10403;SDS011;5248;47.374;8.486;2022-08-19T04:36:23;20.40;;;18.45;;
10403;SDS011;5248;47.374;8.486;2022-08-19T04:38:53;22.30;;;20.10;;
10403;SDS011;5248;47.374;8.486;2022-08-19T04:41:20;21.98;;;19.88;;
10403;SDS011;5248;47.374;8.486;2022-08-19T04:44:06;23.05;;;20.58;;
10403;SDS011;5248;47.374;8.486;2022-08-19T04:46:32;23.48;;;21.08;;
10403;SDS011;5248;47.374;8.486;2022-08-19T04:49:00;23.80;;;21.33;;
10403;SDS011;5248;47.374;8.486;2022-08-19T04:51:27;23.75;;;21.27;;
10403;SDS011;5248;47.374;8.486;2022-08-19T04:53:56;25.00;;;22.23;;
10403;SDS011;5248;47.374;8.486;2022-08-19T04:56:23;24.23;;;21.70;;
10403;SDS011;5248;47.374;8.486;2022-08-19T04:58:51;23.63;;;21.20;;
10403;SDS011;5248;47.374;8.486;2022-08-19T05:01:21;24.30;;;21.83;;
10403;SDS011;5248;47.374;8.486;2022-08-19T05:03:49;24.05;;;21.45;;
10403;SDS011;5248;47.374;8.486;2022-08-19T05:06:17;23.23;;;20.85;;
10403;SDS011;5248;47.374;8.486;2022-08-19T05:08:45;24.05;;;21.33;;
10403;SDS011;5248;47.374;8.486;2022-08-19T05:11:13;24.70;;;22.10;;
10403;SDS011;5248;47.374;8.486;2022-08-19T05:13:42;22.80;;;20.52;;
10403;SDS011;5248;47.374;8.486;2022-08-19T05:16:09;22.73;;;20.58;;
10403;SDS011;5248;47.374;8.486;2022-08-19T05:18:38;23.60;;;21.40;;
10403;SDS011;5248;47.374;8.486;2022-08-19T05:21:31;20.40;;;18.50;;
10403;SDS011;5248;47.374;8.486;2022-08-19T05:24:16;21.48;;;19.48;;
10403;SDS011;5248;47.374;8.486;2022-08-19T05:26:44;21.23;;;19.23;;
10403;SDS011;5248;47.374;8.486;2022-08-19T05:29:12;22.23;;;20.13;;
10403;SDS011;5248;47.374;8.486;2022-08-19T05:31:39;20.80;;;18.80;;
10403;SDS011;5248;47.374;8.486;2022-08-19T05:34:07;21.40;;;19.23;;
10403;SDS011;5248;47.374;8.486;2022-08-19T05:36:36;19.88;;;18.13;;
10403;SDS011;5248;47.374;8.486;2022-08-19T05:39:05;20.25;;;18.45;;
10403;SDS011;5248;47.374;8.486;2022-08-19T05:41:32;20.05;;;18.23;;
10403;SDS011;5248;47.374;8.486;2022-08-19T05:44:00;21.00;;;18.98;;
10403;SDS011;5248;47.374;8.486;2022-08-19T05:46:30;20.25;;;18.27;;
10403;SDS011;5248;47.374;8.486;2022-08-19T05:48:57;19.17;;;17.38;;
10403;SDS011;5248;47.374;8.486;2022-08-19T05:51:25;16.70;;;15.23;;
10403;SDS011;5248;47.374;8.486;2022-08-19T05:53:52;17.35;;;15.88;;
10403;SDS011;5248;47.374;8.486;2022-08-19T05:56:19;15.40;;;14.10;;
10403;SDS011;5248;47.374;8.486;2022-08-19T05:58:45;16.63;;;15.23;;
10403;SDS011;5248;47.374;8.486;2022-08-19T06:01:13;15.13;;;13.82;;
10403;SDS011;5248;47.374;8.486;2022-08-19T06:03:41;14.98;;;13.73;;
10403;SDS011;5248;47.374;8.486;2022-08-19T06:06:09;15.57;;;14.15;;
10403;SDS011;5248;47.374;8.486;2022-08-19T06:08:39;14.95;;;13.65;;
10403;SDS011;5248;47.374;8.486;2022-08-19T06:11:18;14.02;;;12.82;;
10403;SDS011;5248;47.374;8.486;2022-08-19T06:13:47;15.75;;;14.35;;
10403;SDS011;5248;47.374;8.486;2022-08-19T06:16:16;14.18;;;12.98;;
10403;SDS011;5248;47.374;8.486;2022-08-19T06:18:45;16.02;;;14.68;;
10403;SDS011;5248;47.374;8.486;2022-08-19T06:21:12;15.40;;;14.13;;
10403;SDS011;5248;47.374;8.486;2022-08-19T06:23:40;16.05;;;14.50;;
10403;SDS011;5248;47.374;8.486;2022-08-19T06:26:10;16.88;;;15.48;;
10403;SDS011;5248;47.374;8.486;2022-08-19T06:28:37;15.88;;;14.48;;
10403;SDS011;5248;47.374;8.486;2022-08-19T06:31:07;16.23;;;14.63;;
10403;SDS011;5248;47.374;8.486;2022-08-19T06:33:34;16.20;;;14.80;;
10403;SDS011;5248;47.374;8.486;2022-08-19T06:36:01;15.75;;;14.35;;
10403;SDS011;5248;47.374;8.486;2022-08-19T06:38:27;16.42;;;14.95;;
10403;SDS011;5248;47.374;8.486;2022-08-19T06:41:00;16.40;;;14.98;;
10403;SDS011;5248;47.374;8.486;2022-08-19T06:43:28;16.45;;;15.00;;
10403;SDS011;5248;47.374;8.486;2022-08-19T06:45:54;14.82;;;13.63;;
10403;SDS011;5248;47.374;8.486;2022-08-19T06:48:21;16.17;;;14.77;;
10403;SDS011;5248;47.374;8.486;2022-08-19T06:50:48;16.13;;;14.82;;
10403;SDS011;5248;47.374;8.486;2022-08-19T06:53:16;15.75;;;14.45;;
10403;SDS011;5248;47.374;8.486;2022-08-19T06:55:44;15.20;;;14.00;;
10403;SDS011;5248;47.374;8.486;2022-08-19T06:58:12;15.70;;;14.32;;
10403;SDS011;5248;47.374;8.486;2022-08-19T07:00:39;15.10;;;13.95;;
10403;SDS011;5248;47.374;8.486;2022-08-19T07:03:06;15.52;;;14.13;;
10403;SDS011;5248;47.374;8.486;2022-08-19T07:05:32;15.55;;;14.35;;
10403;SDS011;5248;47.374;8.486;2022-08-19T07:07:59;15.45;;;14.18;;
10403;SDS011;5248;47.374;8.486;2022-08-19T07:10:26;14.80;;;13.60;;
10403;SDS011;5248;47.374;8.486;2022-08-19T07:12:52;13.95;;;12.75;;
10403;SDS011;5248;47.374;8.486;2022-08-19T07:15:20;14.80;;;13.50;;
10403;SDS011;5248;47.374;8.486;2022-08-19T07:17:48;14.30;;;13.20;;
10403;SDS011;5248;47.374;8.486;2022-08-19T07:20:16;15.27;;;14.05;;
10403;SDS011;5248;47.374;8.486;2022-08-19T07:22:43;14.57;;;13.38;;
10403;SDS011;5248;47.374;8.486;2022-08-19T07:25:10;14.23;;;12.93;;
10403;SDS011;5248;47.374;8.486;2022-08-19T07:27:38;14.45;;;13.27;;
10403;SDS011;5248;47.374;8.486;2022-08-19T07:30:05;14.45;;;13.20;;
10403;SDS011;5248;47.374;8.486;2022-08-19T07:32:34;14.55;;;13.35;;
10403;SDS011;5248;47.374;8.486;2022-08-19T07:35:01;13.75;;;12.63;;
10403;SDS011;5248;47.374;8.486;2022-08-19T07:37:28;15.65;;;14.25;;
10403;SDS011;5248;47.374;8.486;2022-08-19T07:39:54;15.43;;;14.13;;
10403;SDS011;5248;47.374;8.486;2022-08-19T07:42:21;14.65;;;13.45;;
10403;SDS011;5248;47.374;8.486;2022-08-19T07:44:48;14.40;;;13.20;;
10403;SDS011;5248;47.374;8.486;2022-08-19T07:47:14;15.13;;;13.82;;
10403;SDS011;5248;47.374;8.486;2022-08-19T07:49:44;15.18;;;13.85;;
10403;SDS011;5248;47.374;8.486;2022-08-19T07:52:12;16.45;;;15.05;;
10403;SDS011;5248;47.374;8.486;2022-08-19T07:54:39;15.50;;;14.10;;
10403;SDS011;5248;47.374;8.486;2022-08-19T07:57:07;15.75;;;14.50;;
10403;SDS011;5248;47.374;8.486;2022-08-19T07:59:34;17.05;;;15.63;;
10403;SDS011;5248;47.374;8.486;2022-08-19T08:02:01;16.60;;;15.20;;
10403;SDS011;5248;47.374;8.486;2022-08-19T08:04:29;17.23;;;15.80;;
10403;SDS011;5248;47.374;8.486;2022-08-19T08:07:15;16.67;;;15.27;;
10403;SDS011;5248;47.374;8.486;2022-08-19T08:09:59;17.17;;;15.85;;
10403;SDS011;5248;47.374;8.486;2022-08-19T08:12:27;17.98;;;16.38;;
10403;SDS011;5248;47.374;8.486;2022-08-19T08:14:56;16.63;;;15.13;;
10403;SDS011;5248;47.374;8.486;2022-08-19T08:17:25;17.17;;;15.77;;
10403;SDS011;5248;47.374;8.486;2022-08-19T08:19:52;15.90;;;14.50;;
10403;SDS011;5248;47.374;8.486;2022-08-19T08:22:21;17.55;;;16.15;;
10403;SDS011;5248;47.374;8.486;2022-08-19T08:25:03;16.98;;;15.27;;
10403;SDS011;5248;47.374;8.486;2022-08-19T08:27:30;17.05;;;15.55;;
10403;SDS011;5248;47.374;8.486;2022-08-19T08:29:57;16.23;;;14.77;;
10403;SDS011;5248;47.374;8.486;2022-08-19T08:32:24;17.30;;;15.70;;
10403;SDS011;5248;47.374;8.486;2022-08-19T08:34:51;15.65;;;14.18;;
10403;SDS011;5248;47.374;8.486;2022-08-19T08:37:18;16.48;;;15.07;;
10403;SDS011;5248;47.374;8.486;2022-08-19T08:39:46;16.05;;;14.65;;
10403;SDS011;5248;47.374;8.486;2022-08-19T08:42:15;15.95;;;14.55;;
10403;SDS011;5248;47.374;8.486;2022-08-19T08:44:47;16.67;;;15.20;;
10403;SDS011;5248;47.374;8.486;2022-08-19T08:47:16;16.52;;;15.05;;
10403;SDS011;5248;47.374;8.486;2022-08-19T08:49:46;16.67;;;15.18;;
10403;SDS011;5248;47.374;8.486;2022-08-19T08:52:18;16.88;;;15.38;;
10403;SDS011;5248;47.374;8.486;2022-08-19T08:54:50;16.08;;;14.57;;
10403;SDS011;5248;47.374;8.486;2022-08-19T08:57:20;16.38;;;15.00;;
10403;SDS011;5248;47.374;8.486;2022-08-19T08:59:50;17.05;;;15.43;;
10403;SDS011;5248;47.374;8.486;2022-08-19T09:02:18;17.00;;;15.55;;
10403;SDS011;5248;47.374;8.486;2022-08-19T09:04:44;17.65;;;16.10;;
10403;SDS011;5248;47.374;8.486;2022-08-19T09:07:15;17.17;;;15.68;;
10403;SDS011;5248;47.374;8.486;2022-08-19T09:09:50;18.52;;;16.95;;
10403;SDS011;5248;47.374;8.486;2022-08-19T09:12:20;18.55;;;16.75;;
10403;SDS011;5248;47.374;8.486;2022-08-19T09:14:52;17.83;;;16.13;;
10403;SDS011;5248;47.374;8.486;2022-08-19T09:17:22;18.48;;;16.77;;
10403;SDS011;5248;47.374;8.486;2022-08-19T09:19:54;17.63;;;16.00;;
10403;SDS011;5248;47.374;8.486;2022-08-19T09:22:22;18.08;;;16.42;;
10403;SDS011;5248;47.374;8.486;2022-08-19T09:24:50;18.55;;;16.85;;
10403;SDS011;5248;47.374;8.486;2022-08-19T09:27:18;19.30;;;17.50;;
10403;SDS011;5248;47.374;8.486;2022-08-19T09:29:46;19.23;;;17.52;;
10403;SDS011;5248;47.374;8.486;2022-08-19T09:32:13;17.08;;;15.63;;
10403;SDS011;5248;47.374;8.486;2022-08-19T09:34:40;21.17;;;19.27;;
10403;SDS011;5248;47.374;8.486;2022-08-19T09:37:08;20.48;;;18.67;;
10403;SDS011;5248;47.374;8.486;2022-08-19T09:39:35;21.10;;;19.20;;
10403;SDS011;5248;47.374;8.486;2022-08-19T09:42:03;21.45;;;19.38;;
10403;SDS011;5248;47.374;8.486;2022-08-19T09:44:33;20.77;;;18.88;;
10403;SDS011;5248;47.374;8.486;2022-08-19T09:47:00;20.77;;;18.85;;
10403;SDS011;5248;47.374;8.486;2022-08-19T09:49:28;21.35;;;19.35;;
10403;SDS011;5248;47.374;8.486;2022-08-19T09:51:55;21.08;;;19.20;;
10403;SDS011;5248;47.374;8.486;2022-08-19T09:54:22;20.55;;;18.73;;
10403;SDS011;5248;47.374;8.486;2022-08-19T09:56:49;19.60;;;17.80;;
10403;SDS011;5248;47.374;8.486;2022-08-19T09:59:17;21.23;;;19.35;;
10403;SDS011;5248;47.374;8.486;2022-08-19T10:01:44;22.35;;;20.25;;
10403;SDS011;5248;47.374;8.486;2022-08-19T10:04:10;21.20;;;19.30;;
10403;SDS011;5248;47.374;8.486;2022-08-19T10:06:37;22.63;;;20.63;;
10403;SDS011;5248;47.374;8.486;2022-08-19T10:09:07;23.05;;;20.92;;
10403;SDS011;5248;47.374;8.486;2022-08-19T10:11:36;22.90;;;20.70;;
10403;SDS011;5248;47.374;8.486;2022-08-19T10:14:03;22.40;;;20.30;;
10403;SDS011;5248;47.374;8.486;2022-08-19T10:16:33;21.65;;;19.65;;
10403;SDS011;5248;47.374;8.486;2022-08-19T10:19:00;20.55;;;18.73;;
10403;SDS011;5248;47.374;8.486;2022-08-19T10:21:28;22.45;;;20.35;;
10403;SDS011;5248;47.374;8.486;2022-08-19T10:23:58;23.67;;;21.33;;
10403;SDS011;5248;47.374;8.486;2022-08-19T10:26:27;23.05;;;20.90;;
10403;SDS011;5248;47.374;8.486;2022-08-19T10:28:55;21.70;;;19.77;;
10403;SDS011;5248;47.374;8.486;2022-08-19T10:31:23;22.50;;;20.05;;
10403;SDS011;5248;47.374;8.486;2022-08-19T10:33:52;22.90;;;20.80;;
10403;SDS011;5248;47.374;8.486;2022-08-19T10:36:23;22.00;;;19.75;;
10403;SDS011;5248;47.374;8.486;2022-08-19T10:38:52;23.33;;;20.92;;
10403;SDS011;5248;47.374;8.486;2022-08-19T10:41:23;21.95;;;19.92;;
10403;SDS011;5248;47.374;8.486;2022-08-19T10:43:51;20.05;;;18.25;;
10403;SDS011;5248;47.374;8.486;2022-08-19T10:46:19;23.00;;;20.85;;
10403;SDS011;5248;47.374;8.486;2022-08-19T10:48:47;30.45;;;27.13;;
10403;SDS011;5248;47.374;8.486;2022-08-19T10:51:15;24.60;;;22.40;;
10403;SDS011;5248;47.374;8.486;2022-08-19T10:54:00;24.58;;;22.02;;
10403;SDS011;5248;47.374;8.486;2022-08-19T10:56:28;24.33;;;22.02;;
10403;SDS011;5248;47.374;8.486;2022-08-19T10:59:13;24.08;;;21.88;;
10403;SDS011;5248;47.374;8.486;2022-08-19T11:01:41;24.10;;;21.75;;
10403;SDS011;5248;47.374;8.486;2022-08-19T11:04:08;23.27;;;21.08;;
10403;SDS011;5248;47.374;8.486;2022-08-19T11:06:40;22.95;;;20.60;;
10403;SDS011;5248;47.374;8.486;2022-08-19T11:09:08;24.35;;;21.95;;
10403;SDS011;5248;47.374;8.486;2022-08-19T11:11:36;22.83;;;20.52;;
10403;SDS011;5248;47.374;8.486;2022-08-19T11:14:05;22.27;;;20.13;;
10403;SDS011;5248;47.374;8.486;2022-08-19T11:16:33;21.90;;;19.90;;
10403;SDS011;5248;47.374;8.486;2022-08-19T11:18:59;21.50;;;19.58;;
10403;SDS011;5248;47.374;8.486;2022-08-19T11:21:31;20.02;;;18.15;;
10403;SDS011;5248;47.374;8.486;2022-08-19T11:24:01;21.85;;;19.88;;
10403;SDS011;5248;47.374;8.486;2022-08-19T11:26:31;23.33;;;21.13;;
10403;SDS011;5248;47.374;8.486;2022-08-19T11:28:58;23.27;;;20.85;;
10403;SDS011;5248;47.374;8.486;2022-08-19T11:31:29;23.63;;;21.42;;
10403;SDS011;5248;47.374;8.486;2022-08-19T11:33:57;22.75;;;20.60;;
10403;SDS011;5248;47.374;8.486;2022-08-19T11:36:25;22.50;;;20.40;;
10403;SDS011;5248;47.374;8.486;2022-08-19T11:38:53;22.92;;;20.63;;
10403;SDS011;5248;47.374;8.486;2022-08-19T11:41:22;21.77;;;19.65;;
10403;SDS011;5248;47.374;8.486;2022-08-19T11:43:49;23.85;;;21.65;;
10403;SDS011;5248;47.374;8.486;2022-08-19T11:46:18;23.58;;;21.40;;
10403;SDS011;5248;47.374;8.486;2022-08-19T11:48:45;23.20;;;21.10;;
10403;SDS011;5248;47.374;8.486;2022-08-19T11:51:15;22.95;;;20.65;;
10403;SDS011;5248;47.374;8.486;2022-08-19T11:53:44;22.40;;;20.40;;
10403;SDS011;5248;47.374;8.486;2022-08-19T11:56:11;23.58;;;21.33;;
10403;SDS011;5248;47.374;8.486;2022-08-19T11:58:39;23.70;;;21.38;;
10403;SDS011;5248;47.374;8.486;2022-08-19T12:01:07;24.65;;;22.35;;
10403;SDS011;5248;47.374;8.486;2022-08-19T12:03:36;21.35;;;19.35;;
10403;SDS011;5248;47.374;8.486;2022-08-19T12:06:04;22.85;;;20.88;;
10403;SDS011;5248;47.374;8.486;2022-08-19T12:08:32;24.23;;;22.00;;
10403;SDS011;5248;47.374;8.486;2022-08-19T12:10:58;22.73;;;20.63;;
10403;SDS011;5248;47.374;8.486;2022-08-19T12:13:26;22.13;;;20.13;;
10403;SDS011;5248;47.374;8.486;2022-08-19T12:15:55;21.42;;;19.42;;
10403;SDS011;5248;47.374;8.486;2022-08-19T12:18:21;21.60;;;19.60;;
10403;SDS011;5248;47.374;8.486;2022-08-19T12:20:49;22.20;;;20.05;;
10403;SDS011;5248;47.374;8.486;2022-08-19T12:23:16;22.77;;;20.65;;
10403;SDS011;5248;47.374;8.486;2022-08-19T12:25:44;21.42;;;19.45;;
10403;SDS011;5248;47.374;8.486;2022-08-19T12:28:14;23.25;;;21.13;;
10403;SDS011;5248;47.374;8.486;2022-08-19T12:30:41;22.83;;;20.52;;
10403;SDS011;5248;47.374;8.486;2022-08-19T12:33:09;22.35;;;20.25;;
10403;SDS011;5248;47.374;8.486;2022-08-19T12:35:39;23.58;;;21.27;;
10403;SDS011;5248;47.374;8.486;2022-08-19T12:38:06;23.60;;;21.50;;
10403;SDS011;5248;47.374;8.486;2022-08-19T12:40:32;23.85;;;21.65;;
10403;SDS011;5248;47.374;8.486;2022-08-19T12:42:59;23.75;;;21.60;;
10403;SDS011;5248;47.374;8.486;2022-08-19T12:45:27;21.65;;;19.70;;
10403;SDS011;5248;47.374;8.486;2022-08-19T12:47:54;23.38;;;20.95;;
10403;SDS011;5248;47.374;8.486;2022-08-19T12:50:22;22.33;;;20.38;;
10403;SDS011;5248;47.374;8.486;2022-08-19T12:52:50;22.70;;;20.70;;
10403;SDS011;5248;47.374;8.486;2022-08-19T12:55:17;22.23;;;20.23;;
10403;SDS011;5248;47.374;8.486;2022-08-19T12:57:44;26.42;;;23.92;;
10403;SDS011;5248;47.374;8.486;2022-08-19T13:00:13;27.60;;;24.83;;
10403;SDS011;5248;47.374;8.486;2022-08-19T13:02:42;21.90;;;19.90;;
10403;SDS011;5248;47.374;8.486;2022-08-19T13:05:11;21.92;;;19.98;;
10403;SDS011;5248;47.374;8.486;2022-08-19T13:07:42;21.60;;;19.52;;
10403;SDS011;5248;47.374;8.486;2022-08-19T13:10:10;22.65;;;20.45;;
10403;SDS011;5248;47.374;8.486;2022-08-19T13:12:39;20.73;;;18.92;;
10403;SDS011;5248;47.374;8.486;2022-08-19T13:15:07;22.20;;;20.23;;
10403;SDS011;5248;47.374;8.486;2022-08-19T13:17:34;21.38;;;19.48;;
10403;SDS011;5248;47.374;8.486;2022-08-19T13:20:01;22.15;;;20.25;;
10403;SDS011;5248;47.374;8.486;2022-08-19T13:22:29;22.33;;;20.33;;
10403;SDS011;5248;47.374;8.486;2022-08-19T13:24:57;22.15;;;20.05;;
10403;SDS011;5248;47.374;8.486;2022-08-19T13:27:24;20.80;;;18.90;;
10403;SDS011;5248;47.374;8.486;2022-08-19T13:29:51;22.60;;;20.58;;
10403;SDS011;5248;47.374;8.486;2022-08-19T13:32:35;22.60;;;20.33;;
10403;SDS011;5248;47.374;8.486;2022-08-19T13:35:18;21.92;;;19.80;;
10403;SDS011;5248;47.374;8.486;2022-08-19T13:37:45;18.90;;;17.30;;
10403;SDS011;5248;47.374;8.486;2022-08-19T13:40:15;20.23;;;18.42;;
10403;SDS011;5248;47.374;8.486;2022-08-19T13:42:44;22.52;;;20.35;;
10403;SDS011;5248;47.374;8.486;2022-08-19T13:45:12;20.52;;;18.77;;
10403;SDS011;5248;47.374;8.486;2022-08-19T13:47:40;20.23;;;18.33;;
10403;SDS011;5248;47.374;8.486;2022-08-19T13:50:08;19.55;;;17.90;;
10403;SDS011;5248;47.374;8.486;2022-08-19T13:52:36;19.10;;;17.45;;
10403;SDS011;5248;47.374;8.486;2022-08-19T13:55:03;19.80;;;18.08;;
10403;SDS011;5248;47.374;8.486;2022-08-19T13:57:32;21.00;;;19.10;;
10403;SDS011;5248;47.374;8.486;2022-08-19T13:59:58;18.58;;;16.85;;
10403;SDS011;5248;47.374;8.486;2022-08-19T14:02:25;19.95;;;18.20;;
10403;SDS011;5248;47.374;8.486;2022-08-19T14:04:52;20.98;;;19.08;;
10403;SDS011;5248;47.374;8.486;2022-08-19T14:07:19;19.13;;;17.52;;
10403;SDS011;5248;47.374;8.486;2022-08-19T14:09:48;20.13;;;18.38;;
10403;SDS011;5248;47.374;8.486;2022-08-19T14:12:17;19.55;;;17.80;;
10403;SDS011;5248;47.374;8.486;2022-08-19T14:14:46;19.52;;;17.85;;
10403;SDS011;5248;47.374;8.486;2022-08-19T14:17:13;18.17;;;16.48;;
10403;SDS011;5248;47.374;8.486;2022-08-19T14:19:40;28.83;;;26.13;;
10403;SDS011;5248;47.374;8.486;2022-08-19T14:22:06;22.42;;;20.42;;
10403;SDS011;5248;47.374;8.486;2022-08-19T14:24:33;21.60;;;19.52;;
10403;SDS011;5248;47.374;8.486;2022-08-19T14:27:00;19.25;;;17.65;;
10403;SDS011;5248;47.374;8.486;2022-08-19T14:29:28;19.27;;;17.58;;
10403;SDS011;5248;47.374;8.486;2022-08-19T14:31:56;19.92;;;18.17;;
10403;SDS011;5248;47.374;8.486;2022-08-19T14:34:24;19.65;;;17.83;;
10403;SDS011;5248;47.374;8.486;2022-08-19T14:36:51;19.48;;;17.77;;
10403;SDS011;5248;47.374;8.486;2022-08-19T14:39:17;19.65;;;17.95;;
10403;SDS011;5248;47.374;8.486;2022-08-19T14:41:44;19.58;;;17.77;;
10403;SDS011;5248;47.374;8.486;2022-08-19T14:44:11;21.33;;;19.42;;